Saint Augustine, FL (32084)

10:00 PM EDT on August 03, 2015 (GMT -0400)
Salt Run | | Change Station
CLOSE
Current Station
Personal Weather Station
Location: St. Augustine, FL
Elevation: 35 ft
Nearby Weather Stations

Elev 35 ft 29.89 °N, 81.30 °W | Updated 11 seconds ago

Thunderstorm
Thunderstorm
76.5 °F
Feels Like 76 °F
N
6.9
Wind Variable Wind from WSW
Gusts 10.0 mph

Today
High -- | Low -- °F
--% Chance of Precip.
Yesterday
High -- | Low -- °F
Precip. -- in
6:45 AM 8:16 PM
Waning Gibbous, 82% visible
Pressure 29.94 in
Visibility 10.0 miles
Clouds Mostly Cloudy 800 ft
Mostly Cloudy 8000 ft
Overcast 11000 ft
Heat Index 76 °F
Dew Point 76 °F
Humidity 97%
Rainfall 0.04 in
Snow Depth Not available.
UV 0 out of 12
Pollen 3.70 out of 12
Air Quality Not available.
Flu Activity Not available.
METAR KSGJ 040158Z AUTO 22008KT 10SM BKN008 BKN080 OVC110 25/24 A2994 RMK AO2 LTG DSNT ALQDS TSB17E44RAE02B28E41 SLP137 P0000 T02500239

More Conditions Fewer Conditions

Pressure 29.94 in
Visibility 10.0 miles
Clouds Mostly Cloudy 800 ft
Mostly Cloudy 8000 ft
Overcast 11000 ft
Heat Index 76 °F
Dew Point 76 °F
Humidity 97%
Rainfall 0.04 in
Snow Depth Not available.
UV 0 out of 12
Pollen 3.70 out of 12
Air Quality Not available.
Flu Activity Not available.
METAR KSGJ 040158Z AUTO 22008KT 10SM BKN008 BKN080 OVC110 25/24 A2994 RMK AO2 LTG DSNT ALQDS TSB17E44RAE02B28E41 SLP137 P0000 T02500239

More Conditions Fewer Conditions

10-Day Weather Forecast

×

Almanac

Astronomy

Aug. 03, 2015 Rise Set
Actual Time
Civil Twilight
Nautical Twilight
Astronomical Twilight
Moon
Length of Visible Light
Length of Day
Tomorrow will be .
, % of the Moon is Illuminated

Today's Extremes

State Highs State Lows

Community

WunderPhotos

Upload Photos

1,843,825 photos uploaded!

WunderBlogs® & News

Nearby

Air Quality

  Air Quality AQ Index Pollutant
Not available.

Snow Depth

Station Depth Elevation

Earthquake Activity

City Distance Mag. Time & Date
Minimum magnitude displayed is 2.5.

Coastal Water Temperatures

Place Temperature

Stations

Nearby Weather Stations

Station Location Temp. Windchill Dew Point Humidity Wind Precip. Elev Updated Type